Time;durP1;ratioP1;P1;durP2;ratioP2;P2;SDS_P1;SDS_P2;PMS_P1;PMS_P2;Temp;Humidity;BMP_temperature;BMP_pressure;BME280_temperature;BME280_humidity;BME280_pressure;Samples;Min_cycle;Max_cycle;Signal;HPM_P1;HPM_P2
2023/04/11 00:00:31;;;;;;;0.30;0.30;;;;;;;9.22;54.23;97000.25;5071828;28;20055;-69
2023/04/11 00:02:59;;;;;;;0.30;0.30;;;;;;;9.20;54.04;96987.13;5068878;28;20495;-69
2023/04/11 00:05:27;;;;;;;0.45;0.45;;;;;;;9.18;54.28;96986.50;5070739;28;20051;-71
2023/04/11 00:07:56;;;;;;;0.35;0.30;;;;;;;9.15;54.36;96971.75;5065401;28;20044;-70
2023/04/11 00:10:24;;;;;;;0.38;0.38;;;;;;;9.18;54.37;96965.22;5070441;28;20040;-72
2023/04/11 00:12:55;;;;;;;0.30;0.30;;;;;;;9.16;54.34;96956.59;5072633;28;20101;-71
2023/04/11 00:15:23;;;;;;;0.38;0.38;;;;;;;9.16;54.53;96993.88;5068842;28;20081;-71
2023/04/11 00:17:53;;;;;;;0.50;0.50;;;;;;;9.13;54.54;97003.09;5072092;28;20052;-72
2023/04/11 00:20:21;;;;;;;0.40;0.40;;;;;;;9.14;54.61;97007.38;5068749;28;20480;-72
2023/04/11 00:22:49;;;;;;;0.40;0.40;;;;;;;9.16;54.63;97012.50;5070857;28;20048;-71
2023/04/11 00:25:18;;;;;;;0.43;0.43;;;;;;;9.19;54.53;97025.44;5067063;28;20052;-71
2023/04/11 00:27:46;;;;;;;0.30;0.30;;;;;;;9.19;54.48;97049.38;5063927;28;20053;-71
2023/04/11 00:30:14;;;;;;;0.40;0.40;;;;;;;9.27;54.40;97054.53;5051581;28;20048;-72
2023/04/11 00:32:44;;;;;;;0.43;0.43;;;;;;;9.19;54.61;97062.69;5040086;28;20112;-71
2023/04/11 00:35:12;;;;;;;0.43;0.43;;;;;;;9.21;54.80;97060.66;5072485;28;20442;-71
2023/04/11 00:37:42;;;;;;;0.50;0.50;;;;;;;9.18;54.77;97051.22;5066341;28;20052;-72
2023/04/11 00:40:11;;;;;;;0.30;0.30;;;;;;;9.15;54.65;97030.31;5066705;28;20040;-71
2023/04/11 00:42:40;;;;;;;0.45;0.45;;;;;;;9.14;55.04;97031.34;5071417;28;20098;-72
2023/04/11 00:45:09;;;;;;;0.20;0.20;;;;;;;9.14;54.82;97036.66;5046649;28;20083;-71
2023/04/11 00:47:37;;;;;;;0.35;0.35;;;;;;;9.15;54.91;97040.16;5066991;28;20442;-71
2023/04/11 00:50:05;;;;;;;0.40;0.40;;;;;;;9.13;55.08;97044.88;5067260;28;20128;-71
2023/04/11 00:52:33;;;;;;;0.32;0.32;;;;;;;9.14;55.22;97049.97;5045415;28;20086;-72
2023/04/11 00:55:01;;;;;;;0.43;0.43;;;;;;;9.15;55.17;97043.63;5045649;28;20464;-71
2023/04/11 00:57:29;;;;;;;0.43;0.43;;;;;;;9.19;55.14;97026.25;5042393;28;20041;-72
2023/04/11 00:59:59;;;;;;;0.40;0.40;;;;;;;9.20;55.26;97030.56;5054013;28;20059;-72
2023/04/11 01:02:26;;;;;;;0.30;0.30;;;;;;;9.22;55.33;97026.88;5042431;28;20052;-69
2023/04/11 01:04:55;;;;;;;0.30;0.30;;;;;;;9.20;55.15;97030.56;5053335;28;20037;-70
2023/04/11 01:07:23;;;;;;;0.50;0.50;;;;;;;9.25;55.13;97023.78;5042501;28;20048;-69
2023/04/11 01:09:51;;;;;;;0.35;0.35;;;;;;;9.16;55.37;97023.97;5067591;28;20053;-72
2023/04/11 01:12:20;;;;;;;0.30;0.30;;;;;;;9.16;55.47;97033.81;5071418;28;20149;-70
2023/04/11 01:14:48;;;;;;;0.30;0.30;;;;;;;9.20;55.72;97017.25;5050287;28;20092;-70
2023/04/11 01:17:16;;;;;;;0.80;0.80;;;;;;;9.20;55.66;97029.72;5050259;28;20424;-70
2023/04/11 01:19:44;;;;;;;0.28;0.28;;;;;;;9.22;55.77;97030.34;5051187;28;20084;-69
2023/04/11 01:22:13;;;;;;;0.25;0.25;;;;;;;9.20;55.83;97017.25;5052680;28;20098;-71
2023/04/11 01:24:42;;;;;;;0.30;0.30;;;;;;;9.18;56.64;97029.09;5051214;28;20044;-70
2023/04/11 01:27:10;;;;;;;0.40;0.40;;;;;;;9.23;56.86;97036.50;5044475;28;20069;-70
2023/04/11 01:29:38;;;;;;;0.30;0.30;;;;;;;9.20;56.69;97038.53;5047499;28;20516;-72
2023/04/11 01:32:06;;;;;;;0.30;0.30;;;;;;;9.19;57.42;97033.41;5050575;28;20407;-71
2023/04/11 01:34:34;;;;;;;0.40;0.40;;;;;;;9.17;57.75;97014.97;5045522;28;20095;-70
2023/04/11 01:37:02;;;;;;;0.30;0.30;;;;;;;9.14;58.22;97027.84;5043472;28;20048;-71
2023/04/11 01:39:29;;;;;;;0.40;0.40;;;;;;;9.13;58.28;97015.59;5066122;28;20044;-71
2023/04/11 01:42:00;;;;;;;0.30;0.30;;;;;;;9.11;59.31;97017.63;5050460;28;20052;-70
2023/04/11 01:44:28;;;;;;;0.30;0.30;;;;;;;9.10;60.01;97011.47;5049771;28;20044;-71
2023/04/11 01:46:56;;;;;;;0.30;0.30;;;;;;;9.15;61.02;96993.03;5067002;28;20052;-70
2023/04/11 01:49:24;;;;;;;0.30;0.30;;;;;;;9.20;61.68;96963.16;5070003;28;20040;-71
2023/04/11 01:51:52;;;;;;;0.20;0.20;;;;;;;9.25;62.37;96954.56;5046556;28;20037;-70
2023/04/11 01:54:20;;;;;;;0.32;0.32;;;;;;;9.25;63.09;96944.72;5047483;28;20047;-71
2023/04/11 01:56:47;;;;;;;0.30;0.30;;;;;;;9.29;63.00;96948.63;5045653;28;20052;-70
2023/04/11 01:59:16;;;;;;;0.50;0.38;;;;;;;9.25;63.01;96946.56;5046864;28;20056;-70
2023/04/11 02:01:45;;;;;;;0.93;0.20;;;;;;;9.22;62.90;96949.66;5050260;28;20543;-71
2023/04/11 02:04:13;;;;;;;0.30;0.30;;;;;;;9.07;66.14;96950.63;5066990;28;20526;-71
2023/04/11 02:06:41;;;;;;;0.30;0.30;;;;;;;9.06;63.95;96946.34;5068783;28;21194;-70
2023/04/11 02:09:08;;;;;;;0.38;0.38;;;;;;;8.93;64.63;96964.91;5044974;28;20071;-70
2023/04/11 02:11:36;;;;;;;0.30;0.30;;;;;;;8.94;65.12;96974.53;5047321;28;20086;-70
2023/04/11 02:14:05;;;;;;;0.30;0.30;;;;;;;8.98;65.13;96959.00;5065384;28;20075;-70
2023/04/11 02:16:36;;;;;;;0.30;0.30;;;;;;;8.95;65.71;96944.25;5045566;28;20091;-70
2023/04/11 02:19:04;;;;;;;0.32;0.32;;;;;;;8.88;66.07;96927.47;5056810;28;20094;-70
2023/04/11 02:21:32;;;;;;;0.30;0.30;;;;;;;8.84;66.44;96937.66;5044978;28;20068;-71
2023/04/11 02:23:59;;;;;;;0.20;0.20;;;;;;;8.78;67.32;96938.47;5052061;28;20048;-71
2023/04/11 02:26:27;;;;;;;0.30;0.30;;;;;;;8.74;68.18;96933.75;5070589;28;20131;-70
2023/04/11 02:28:55;;;;;;;0.30;0.30;;;;;;;8.65;69.08;96934.94;5066836;28;20049;-70
2023/04/11 02:31:23;;;;;;;0.20;0.20;;;;;;;8.57;70.19;96930.63;5049676;28;20052;-70
2023/04/11 02:33:52;;;;;;;0.43;0.43;;;;;;;8.56;70.59;96933.47;5045291;28;20046;-70
2023/04/11 02:36:19;;;;;;;0.30;0.30;;;;;;;8.50;71.23;96924.47;5049319;28;20090;-71
2023/04/11 02:38:47;;;;;;;0.28;0.28;;;;;;;8.50;71.61;96913.00;5061149;28;20049;-71
2023/04/11 02:41:14;;;;;;;0.25;0.25;;;;;;;8.48;72.24;96904.41;5049511;28;20534;-71
2023/04/11 02:43:42;;;;;;;0.22;0.22;;;;;;;8.46;72.63;96908.06;5042533;28;20045;-71
2023/04/11 02:46:09;;;;;;;0.40;0.40;;;;;;;8.47;73.11;96898.25;5047058;28;20049;-71
2023/04/11 02:48:43;;;;;;;0.30;0.30;;;;;;;8.47;73.20;96903.56;5048469;28;20063;-71
2023/04/11 02:51:13;;;;;;;0.73;0.73;;;;;;;8.41;74.23;96893.72;5046088;28;20103;-71
2023/04/11 02:53:41;;;;;;;0.40;0.40;;;;;;;8.31;76.09;96896.75;5048202;28;20045;-72
2023/04/11 02:56:10;;;;;;;0.30;0.30;;;;;;;8.22;76.60;96895.25;5043584;28;20091;-71
2023/04/11 02:58:40;;;;;;;0.30;0.30;;;;;;;8.18;76.42;96896.66;5067123;28;20059;-71
2023/04/11 03:01:10;;;;;;;0.32;0.30;;;;;;;8.17;77.05;96891.53;5045876;28;20045;-71
2023/04/11 03:03:38;;;;;;;0.35;0.35;;;;;;;8.08;77.60;96904.19;5048324;28;20061;-71
2023/04/11 03:06:07;;;;;;;0.40;0.40;;;;;;;8.18;78.00;96907.31;5044569;28;20107;-71
2023/04/11 03:08:38;;;;;;;0.30;0.30;;;;;;;8.10;78.13;96887.00;5047495;28;20068;-71
2023/04/11 03:11:06;;;;;;;0.40;0.40;;;;;;;8.07;78.84;96897.22;5044160;28;20092;-72
2023/04/11 03:13:35;;;;;;;0.30;0.30;;;;;;;8.08;78.34;96890.88;5063730;28;20044;-72
2023/04/11 03:16:03;;;;;;;0.20;0.20;;;;;;;8.03;78.52;96882.66;5048835;28;20432;-71
2023/04/11 03:18:31;;;;;;;0.32;0.32;;;;;;;7.99;79.11;96881.44;5045149;28;20056;-71
2023/04/11 03:21:06;;;;;;;0.30;0.30;;;;;;;7.91;78.95;96863.81;5051888;28;20063;-71
2023/04/11 03:23:34;;;;;;;0.20;0.20;;;;;;;7.87;78.45;96851.13;5052234;28;20454;-71
2023/04/11 03:26:03;;;;;;;0.30;0.30;;;;;;;7.83;78.46;96855.19;5052574;28;20449;-71
2023/04/11 03:28:30;;;;;;;0.38;0.38;;;;;;;7.89;78.77;96863.16;5061232;28;20044;-71
2023/04/11 03:30:58;;;;;;;0.30;0.30;;;;;;;7.84;79.01;96846.19;5055822;28;20106;-71
2023/04/11 03:33:26;;;;;;;0.20;0.20;;;;;;;7.84;79.13;96840.88;5048421;28;20087;-71
2023/04/11 03:35:54;;;;;;;0.35;0.35;;;;;;;7.80;78.90;96836.97;5070956;28;20037;-71
2023/04/11 03:38:21;;;;;;;0.40;0.40;;;;;;;7.73;79.16;96827.13;5068795;28;20103;-71
2023/04/11 03:40:49;;;;;;;0.30;0.30;;;;;;;7.71;79.21;96813.22;5051458;28;21384;-71
2023/04/11 03:43:21;;;;;;;0.60;0.60;;;;;;;7.76;79.04;96812.66;5054798;28;20068;-71
2023/04/11 03:45:52;;;;;;;0.20;0.20;;;;;;;7.81;78.97;96815.53;5051434;28;20047;-71
2023/04/11 03:48:30;;;;;;;0.38;0.38;;;;;;;7.79;79.05;96814.09;5054242;28;20060;-71
2023/04/11 03:51:02;;;;;;;0.40;0.40;;;;;;;7.78;79.47;96812.47;5050636;28;20048;-72
2023/04/11 03:53:38;;;;;;;0.30;0.30;;;;;;;7.83;79.19;96824.13;5053651;28;20048;-71
2023/04/11 03:56:29;;;;;;;0.38;0.38;;;;;;;7.82;79.23;96811.03;5047769;28;20058;-72
2023/04/11 03:58:58;;;;;;;0.30;0.30;;;;;;;7.85;79.36;96805.34;5072702;28;20040;-71
2023/04/11 04:01:31;;;;;;;0.28;0.28;;;;;;;7.80;78.99;96807.75;5048369;28;20360;-72
2023/04/11 04:04:03;;;;;;;0.30;0.30;;;;;;;7.78;79.84;96812.47;5050894;28;20131;-71
2023/04/11 04:06:35;;;;;;;0.95;0.95;;;;;;;7.76;80.00;96807.34;5047191;28;20487;-71
2023/04/11 04:09:04;;;;;;;0.40;0.40;;;;;;;7.78;79.68;96812.47;5053369;28;20074;-71
2023/04/11 04:11:43;;;;;;;0.47;0.47;;;;;;;7.79;80.01;96814.09;5050108;28;20082;-71
2023/04/11 04:14:13;;;;;;;0.30;0.30;;;;;;;7.75;80.32;96818.97;5049175;28;20053;-71
2023/04/11 04:16:41;;;;;;;0.50;0.50;;;;;;;7.81;80.46;96820.00;5051968;28;20048;-72
2023/04/11 04:19:10;;;;;;;0.32;0.32;;;;;;;7.76;80.29;96814.47;5048828;28;20439;-70
2023/04/11 04:21:42;;;;;;;0.30;0.30;;;;;;;7.77;80.42;96816.13;5051461;28;20048;-71
2023/04/11 04:24:10;;;;;;;0.35;0.35;;;;;;;7.80;80.88;96813.06;5051716;28;20084;-71
2023/04/11 04:26:56;;;;;;;0.40;0.40;;;;;;;7.82;80.85;96813.69;5050277;28;20073;-72
2023/04/11 04:29:44;;;;;;;0.40;0.40;;;;;;;7.76;82.21;96817.97;5050673;28;20052;-71
2023/04/11 04:32:19;;;;;;;0.35;0.35;;;;;;;7.78;81.96;96817.78;5047116;28;20056;-72
2023/04/11 04:34:53;;;;;;;0.50;0.50;;;;;;;7.73;82.37;96818.34;5069149;28;20047;-71
2023/04/11 04:37:32;;;;;;;0.40;0.40;;;;;;;7.76;82.76;96819.78;5046596;28;20064;-71
2023/04/11 04:40:12;;;;;;;0.63;0.63;;;;;;;7.70;84.04;96832.00;5045002;28;20418;-71
2023/04/11 04:42:57;;;;;;;;;;;;;;;7.60;85.39;96837.66;5054741;28;20094;-69
2023/04/11 04:45:36;;;;;;;0.32;0.32;;;;;;;7.56;85.78;96849.72;5061341;28;19920;-72
2023/04/11 04:48:05;;;;;;;0.50;0.50;;;;;;;7.43;86.81;96846.13;5051281;28;20120;-71
2023/04/11 04:50:32;;;;;;;0.38;0.38;;;;;;;7.48;86.49;96852.50;5063405;28;20500;-71
2023/04/11 04:53:00;;;;;;;0.40;0.40;;;;;;;7.53;85.82;96846.63;5071344;28;20052;-72
2023/04/11 04:55:28;;;;;;;0.40;0.40;;;;;;;7.51;85.91;96845.97;5045578;28;20049;-72
2023/04/11 04:57:55;;;;;;;0.50;0.50;;;;;;;7.39;86.95;96851.00;5051319;28;20041;-71
2023/04/11 05:00:23;;;;;;;0.50;0.50;;;;;;;7.42;86.59;96852.44;5051006;28;20045;-71
2023/04/11 05:02:57;;;;;;;0.40;0.40;;;;;;;7.35;87.72;96855.91;5049949;28;20045;-72
2023/04/11 05:05:30;;;;;;;0.40;0.40;;;;;;;7.48;86.66;96855.16;5050121;28;20072;-71
2023/04/11 05:07:58;;;;;;;0.47;0.47;;;;;;;7.44;88.01;96848.59;5048470;28;20106;-72
2023/04/11 05:10:26;;;;;;;0.50;0.50;;;;;;;7.43;88.24;96854.91;5050653;28;20044;-71
2023/04/11 05:12:54;;;;;;;0.40;0.40;;;;;;;7.56;87.73;96852.38;5045288;28;20045;-71
2023/04/11 05:15:22;;;;;;;0.40;0.40;;;;;;;7.53;88.54;96852.75;5050442;28;20045;-71
2023/04/11 05:17:50;;;;;;;0.40;0.40;;;;;;;7.61;88.50;96857.91;5044540;28;20053;-71
2023/04/11 05:20:20;;;;;;;0.40;0.40;;;;;;;7.54;89.16;96865.00;5042434;28;20049;-71
2023/04/11 05:22:49;;;;;;;0.50;0.50;;;;;;;7.38;90.65;96867.94;5045887;28;20131;-72
2023/04/11 05:25:18;;;;;;;0.60;0.60;;;;;;;7.56;89.89;96863.00;5050714;28;20045;-72
2023/04/11 05:27:46;;;;;;;0.43;0.43;;;;;;;7.60;89.90;96858.91;5045877;28;20090;-71
2023/04/11 05:30:15;;;;;;;0.40;0.40;;;;;;;7.50;91.48;96881.50;5044902;28;20048;-71
2023/04/11 05:32:45;;;;;;;0.50;0.50;;;;;;;7.33;91.88;96881.81;5041818;28;20056;-71
2023/04/11 05:35:12;;;;;;;0.50;0.50;;;;;;;7.38;92.05;96859.97;5041820;28;20597;-71
2023/04/11 05:37:46;;;;;;;0.40;0.40;;;;;;;7.47;91.54;96874.78;5040818;28;20499;-72
2023/04/11 05:40:15;;;;;;;0.60;0.50;;;;;;;7.50;91.30;96870.88;5059975;28;20049;-71
2023/04/11 05:42:42;;;;;;;0.43;0.43;;;;;;;7.53;91.71;96875.81;5038201;28;20049;-71
2023/04/11 05:45:10;;;;;;;0.60;0.60;;;;;;;7.48;92.63;96883.53;5046649;28;20054;-72
2023/04/11 05:47:38;;;;;;;0.50;0.50;;;;;;;7.53;92.79;96887.25;5066733;28;20040;-72
2023/04/11 05:50:07;;;;;;;0.50;0.50;;;;;;;7.54;92.95;96894.22;5067077;28;20106;-72
2023/04/11 05:52:35;;;;;;;0.50;0.50;;;;;;;7.57;92.68;96901.81;5047324;28;20092;-72
2023/04/11 05:55:05;;;;;;;0.50;0.50;;;;;;;7.52;92.54;96903.38;5044718;28;20051;-72
2023/04/11 05:57:32;;;;;;;0.50;0.50;;;;;;;7.48;93.29;96905.59;5064511;28;20075;-72
2023/04/11 06:00:05;;;;;;;0.52;0.52;;;;;;;7.51;93.22;96915.00;5071424;28;20106;-71
2023/04/11 06:02:39;;;;;;;0.73;0.73;;;;;;;7.54;93.10;96906.66;5066651;28;20424;-72
2023/04/11 06:05:10;;;;;;;0.45;0.45;;;;;;;7.51;92.99;96915.84;5070779;28;20037;-72
2023/04/11 06:07:38;;;;;;;0.30;0.30;;;;;;;7.55;93.70;96906.47;5044490;28;20053;-72
2023/04/11 06:10:08;;;;;;;0.43;0.43;;;;;;;7.52;94.19;96893.59;5071098;28;20080;-72
2023/04/11 06:12:36;;;;;;;0.47;0.47;;;;;;;7.53;94.54;96900.53;5065012;28;20052;-70
2023/04/11 06:15:04;;;;;;;0.40;0.40;;;;;;;7.52;94.38;96898.06;5061678;28;20506;-72
2023/04/11 06:17:32;;;;;;;0.52;0.52;;;;;;;7.56;94.49;96889.53;5071351;28;20097;-70
2023/04/11 06:20:00;;;;;;;0.50;0.50;;;;;;;7.62;93.85;96894.06;5067694;28;20051;-70
2023/04/11 06:22:29;;;;;;;0.30;0.30;;;;;;;7.67;93.82;96902.28;5071204;28;20072;-70
2023/04/11 06:24:56;;;;;;;0.60;0.60;;;;;;;7.77;92.21;96907.25;5070941;28;20045;-71
2023/04/11 06:27:26;;;;;;;0.30;0.30;;;;;;;7.77;92.89;96909.91;5067636;28;20116;-71
2023/04/11 06:29:53;;;;;;;0.50;0.50;;;;;;;7.79;91.27;96904.41;5062657;28;20071;-71
2023/04/11 06:32:21;;;;;;;0.20;0.20;;;;;;;7.81;89.78;96911.16;5066710;28;20048;-70
2023/04/11 06:34:49;;;;;;;0.32;0.32;;;;;;;7.77;89.27;96911.75;5068815;28;20055;-70
2023/04/11 06:37:16;;;;;;;0.20;0.20;;;;;;;7.74;88.35;96916.44;5065961;28;20045;-70
2023/04/11 06:39:44;;;;;;;0.30;0.30;;;;;;;7.79;88.88;96925.66;5068418;28;20052;-70
2023/04/11 06:42:12;;;;;;;0.20;0.20;;;;;;;7.82;88.85;96930.56;5070613;28;20044;-71
2023/04/11 06:44:44;;;;;;;0.20;0.20;;;;;;;7.83;88.11;96934.88;5047435;28;20064;-70
2023/04/11 06:47:12;;;;;;;0.77;0.77;;;;;;;7.85;87.48;96931.00;5069737;28;20479;-70
2023/04/11 06:49:40;;;;;;;0.30;0.30;;;;;;;7.80;87.31;96945.88;5066302;28;20174;-70
2023/04/11 06:52:08;;;;;;;0.30;0.30;;;;;;;7.72;86.91;96936.22;5069111;28;20082;-71
2023/04/11 06:54:35;;;;;;;0.30;0.30;;;;;;;7.74;86.99;96934.19;5069235;28;20120;-70
2023/04/11 06:57:03;;;;;;;0.30;0.30;;;;;;;7.64;86.55;96929.22;5064339;28;20048;-70
2023/04/11 06:59:31;;;;;;;0.30;0.30;;;;;;;7.70;86.04;96917.00;5075176;28;20067;-70
2023/04/11 07:02:00;;;;;;;0.30;0.30;;;;;;;7.76;85.93;96895.00;5068527;28;20045;-69
2023/04/11 07:04:28;;;;;;;0.30;0.30;;;;;;;7.79;86.74;96883.94;5072714;28;20040;-70
2023/04/11 07:06:55;;;;;;;0.40;0.40;;;;;;;7.77;85.63;96879.88;5074933;28;20393;-70
2023/04/11 07:09:23;;;;;;;0.10;0.10;;;;;;;7.76;84.20;96879.06;5073047;28;20127;-71
2023/04/11 07:11:50;;;;;;;0.35;0.35;;;;;;;7.86;83.09;96889.31;5069719;28;20044;-71
2023/04/11 07:14:18;;;;;;;0.30;0.30;;;;;;;7.90;83.15;96887.91;5074616;28;20044;-71
2023/04/11 07:16:45;;;;;;;0.28;0.28;;;;;;;7.88;81.88;96879.34;5075821;28;20092;-71
2023/04/11 07:19:14;;;;;;;0.32;0.32;;;;;;;7.84;81.83;96880.72;5070654;28;20094;-71
2023/04/11 07:21:42;;;;;;;0.20;0.20;;;;;;;7.83;81.73;96897.69;5073073;28;20040;-71
2023/04/11 07:24:12;;;;;;;0.35;0.35;;;;;;;7.80;81.63;96896.22;5073868;28;20079;-72
2023/04/11 07:26:41;;;;;;;0.30;0.30;;;;;;;7.80;82.15;96906.03;5071911;28;20052;-70
2023/04/11 07:29:09;;;;;;;0.25;0.25;;;;;;;7.80;82.56;96906.84;5071555;28;20040;-70
2023/04/11 07:31:40;;;;;;;0.28;0.28;;;;;;;7.95;83.03;96909.41;5072023;28;20052;-70
2023/04/11 07:34:08;;;;;;;0.30;0.30;;;;;;;7.87;82.82;96923.66;5069051;28;20381;-70
2023/04/11 07:36:37;;;;;;;0.20;0.20;;;;;;;7.84;82.96;96928.53;5072427;28;20102;-71
2023/04/11 07:39:07;;;;;;;0.10;0.10;;;;;;;7.82;82.28;96938.53;5067518;28;20053;-71
2023/04/11 07:41:35;;;;;;;0.20;0.20;;;;;;;7.78;82.40;96926.66;5073350;28;20048;-71
2023/04/11 07:44:03;;;;;;;0.30;0.30;;;;;;;7.89;81.83;96934.13;5070409;28;20519;-72
2023/04/11 07:46:31;;;;;;;0.17;0.17;;;;;;;7.85;81.58;96936.31;5072236;28;20588;-72
2023/04/11 07:48:58;;;;;;;0.40;0.40;;;;;;;7.89;82.12;96948.19;5068768;28;20041;-71
2023/04/11 07:51:26;;;;;;;0.20;0.20;;;;;;;7.86;81.72;96930.00;5068012;28;20090;-71
2023/04/11 07:53:55;;;;;;;0.20;0.20;;;;;;;7.82;81.53;96939.34;5062739;28;20094;-71
2023/04/11 07:56:23;;;;;;;0.30;0.30;;;;;;;7.87;80.77;96939.63;5069558;28;20111;-72
2023/04/11 07:58:50;;;;;;;0.22;0.22;;;;;;;7.81;81.25;96939.53;5073288;28;20044;-71
2023/04/11 08:01:22;;;;;;;0.30;0.20;;;;;;;7.82;81.50;96936.69;5069905;28;20074;-72
2023/04/11 08:03:51;;;;;;;0.20;0.20;;;;;;;7.97;81.05;96940.09;5072033;28;20055;-71
2023/04/11 08:06:19;;;;;;;0.38;0.38;;;;;;;7.96;79.86;96949.06;5067898;28;20106;-71
2023/04/11 08:08:46;;;;;;;0.30;0.30;;;;;;;7.96;80.39;96935.78;5071169;28;20052;-72
2023/04/11 08:11:15;;;;;;;0.30;0.30;;;;;;;8.04;80.37;96946.25;5068150;28;20045;-71
2023/04/11 08:13:43;;;;;;;0.20;0.20;;;;;;;8.06;80.20;96943.41;5070286;28;20048;-71
2023/04/11 08:16:13;;;;;;;0.30;0.30;;;;;;;8.15;79.65;96944.91;5072473;28;20045;-72
2023/04/11 08:18:41;;;;;;;0.20;0.20;;;;;;;8.17;79.86;96945.53;5067681;28;20499;-71
2023/04/11 08:21:10;;;;;;;0.38;0.30;;;;;;;8.16;80.20;96949.19;5050802;28;20045;-72
2023/04/11 08:23:40;;;;;;;0.20;0.20;;;;;;;8.35;80.19;96948.50;5066662;28;20040;-71
2023/04/11 08:26:10;;;;;;;0.40;0.40;;;;;;;8.61;80.66;96955.00;5072645;28;20045;-71
2023/04/11 08:28:39;;;;;;;0.22;0.22;;;;;;;8.64;78.77;96938.63;5068115;28;20051;-73
2023/04/11 08:31:11;;;;;;;0.22;0.22;;;;;;;8.65;78.30;96953.56;5072952;28;20496;-72
2023/04/11 08:33:40;;;;;;;0.20;0.20;;;;;;;8.66;78.68;96955.22;5066728;28;20048;-71
2023/04/11 08:36:08;;;;;;;0.40;0.40;;;;;;;8.63;78.38;96950.28;5065864;28;20041;-71
2023/04/11 08:38:37;;;;;;;0.20;0.20;;;;;;;8.58;78.66;96960.69;5066251;28;20056;-71
2023/04/11 08:41:05;;;;;;;0.10;0.10;;;;;;;8.54;78.57;96959.44;5071196;28;20365;-71
2023/04/11 08:43:33;;;;;;;0.20;0.20;;;;;;;8.60;78.70;96948.84;5071957;28;20044;-72
2023/04/11 08:46:03;;;;;;;0.40;0.40;;;;;;;8.72;77.76;96957.09;5068424;28;20455;-72
2023/04/11 08:48:31;;;;;;;0.22;0.22;;;;;;;8.92;77.19;96955.31;5072109;28;20052;-71
2023/04/11 08:50:58;;;;;;;0.30;0.30;;;;;;;9.15;77.39;96958.44;5066775;28;20080;-73
2023/04/11 08:53:27;;;;;;;0.30;0.30;;;;;;;9.31;76.18;96953.78;5072174;28;20048;-72
2023/04/11 08:55:54;;;;;;;0.30;0.30;;;;;;;9.41;75.34;96938.22;5064067;28;20044;-71
2023/04/11 08:58:22;;;;;;;0.10;0.10;;;;;;;9.37;73.47;96947.63;5072033;28;20044;-71
2023/04/11 09:00:49;;;;;;;0.30;0.30;;;;;;;9.46;74.80;96935.75;5068899;28;20136;-71
2023/04/11 09:03:18;;;;;;;0.30;0.30;;;;;;;9.47;74.39;96937.38;5070761;28;20102;-72
2023/04/11 09:05:46;;;;;;;0.25;0.25;;;;;;;9.46;72.78;96922.41;5069262;28;20488;-71
2023/04/11 09:08:14;;;;;;;0.30;0.30;;;;;;;9.53;72.92;96926.75;5069021;28;20066;-72
2023/04/11 09:10:43;;;;;;;0.30;0.30;;;;;;;9.48;69.31;96929.19;5069690;28;20052;-71
2023/04/11 09:13:29;;;;;;;0.20;0.20;;;;;;;9.44;69.04;96921.84;5066625;28;20044;-72
2023/04/11 09:16:04;;;;;;;0.30;0.30;;;;;;;9.48;69.69;96917.72;5063365;28;20123;-71
2023/04/11 09:18:34;;;;;;;0.13;0.13;;;;;;;9.57;68.54;96911.97;5067818;28;20135;-71
2023/04/11 09:21:04;;;;;;;0.22;0.22;;;;;;;9.61;67.29;96916.91;5070744;28;20045;-71
2023/04/11 09:23:32;;;;;;;0.30;0.30;;;;;;;9.64;68.17;96921.84;5072320;28;20080;-72
2023/04/11 09:25:59;;;;;;;0.22;0.22;;;;;;;9.75;68.23;96924.72;5066231;28;20040;-71
2023/04/11 09:28:27;;;;;;;0.20;0.20;;;;;;;9.80;67.90;96913.41;5068439;28;20081;-71
2023/04/11 09:30:55;;;;;;;0.20;0.20;;;;;;;9.90;67.10;96909.31;5070677;28;20502;-71
2023/04/11 09:33:27;;;;;;;0.30;0.30;;;;;;;9.92;66.36;96904.59;5067251;28;20101;-72
2023/04/11 09:35:56;;;;;;;0.25;0.20;;;;;;;10.03;66.36;96900.47;5069574;28;20036;-72
2023/04/11 09:38:28;;;;;;;0.60;0.60;;;;;;;10.20;65.53;96895.53;5066604;28;20509;-72
2023/04/11 09:40:56;;;;;;;0.15;0.15;;;;;;;10.22;63.06;96894.28;5069247;28;20048;-72
2023/04/11 09:43:24;;;;;;;0.20;0.20;;;;;;;10.18;61.47;96903.72;5072327;28;20549;-71
2023/04/11 09:46:17;;;;;;;0.28;0.20;;;;;;;10.15;60.67;96888.13;5066193;28;20048;-73
2023/04/11 09:48:44;;;;;;;0.40;0.40;;;;;;;10.32;61.84;96888.50;5064314;28;20427;-72
2023/04/11 09:51:15;;;;;;;0.20;0.20;;;;;;;10.57;62.24;96888.63;5067700;28;20070;-72
2023/04/11 09:54:03;;;;;;;0.30;0.30;;;;;;;10.60;61.52;96880.19;5058890;28;20422;-70
2023/04/11 09:56:33;;;;;;;0.35;0.20;;;;;;;10.57;61.18;96876.13;5065263;28;20043;-70
2023/04/11 09:59:02;;;;;;;0.32;0.30;;;;;;;10.47;60.86;96878.41;5070866;28;20135;-69
2023/04/11 10:01:30;;;;;;;0.20;0.20;;;;;;;10.42;60.99;96883.56;5067366;28;20044;-70
2023/04/11 10:03:59;;;;;;;0.30;0.30;;;;;;;10.48;61.29;96890.72;5070242;28;20044;-69
2023/04/11 10:06:32;;;;;;;0.22;0.22;;;;;;;10.15;62.23;96893.47;5066641;28;20037;-70
2023/04/11 10:09:05;;;;;;;0.57;0.57;;;;;;;10.03;64.21;96891.66;5064655;28;20469;-69
2023/04/11 10:11:33;;;;;;;0.30;0.28;;;;;;;10.07;64.38;96882.22;5065567;28;20056;-70
2023/04/11 10:14:01;;;;;;;0.30;0.30;;;;;;;10.24;62.08;96878.91;5068585;28;20083;-71
2023/04/11 10:16:31;;;;;;;0.30;0.30;;;;;;;10.72;61.78;96888.34;5070562;28;20496;-70
2023/04/11 10:19:24;;;;;;;0.10;0.10;;;;;;;10.93;59.80;96882.69;5063474;28;20055;-70
2023/04/11 10:21:52;;;;;;;0.10;0.10;;;;;;;11.27;59.65;96886.78;5069602;28;20052;-70
2023/04/11 10:24:21;;;;;;;0.20;0.20;;;;;;;11.28;58.60;96893.78;5070848;28;20384;-70
2023/04/11 10:26:50;;;;;;;0.20;0.20;;;;;;;11.38;58.65;96881.56;5067880;28;20040;-72
2023/04/11 10:29:48;;;;;;;0.52;0.30;;;;;;;11.19;56.69;96901.25;5072698;28;20097;-69
2023/04/11 10:32:27;;;;;;;0.10;0.10;;;;;;;10.99;57.21;96906.69;5047969;28;20459;-69
2023/04/11 10:35:22;;;;;;;0.20;0.20;;;;;;;11.10;58.61;96902.53;5065874;28;20041;-72
2023/04/11 10:37:51;;;;;;;0.20;0.20;;;;;;;11.39;59.08;96895.75;5066357;28;20071;-71
2023/04/11 10:40:19;;;;;;;0.10;0.10;;;;;;;11.67;57.11;96900.66;5063266;28;20064;-72
2023/04/11 10:42:48;;;;;;;0.20;0.20;;;;;;;12.03;56.42;96914.16;5068092;28;20049;-72
2023/04/11 10:45:23;;;;;;;0.20;0.20;;;;;;;11.91;55.38;96920.44;5064824;28;20110;-71
2023/04/11 10:48:06;;;;;;;0.28;0.28;;;;;;;11.98;56.35;96911.31;5067606;28;20502;-71
2023/04/11 10:50:41;;;;;;;0.20;0.20;;;;;;;11.98;56.08;96905.16;5061877;28;20041;-72
2023/04/11 10:53:35;;;;;;;0.50;0.20;;;;;;;11.66;56.72;96907.03;5068695;28;20045;-71
2023/04/11 10:56:03;;;;;;;0.30;0.30;;;;;;;11.69;56.22;96942.19;5067625;28;20073;-72
2023/04/11 10:58:38;;;;;;;0.80;0.80;;;;;;;11.06;54.25;96965.41;5074209;28;20407;-72
2023/04/11 11:01:14;;;;;;;0.25;0.25;;;;;;;10.33;57.04;96991.53;5063698;28;20049;-73
2023/04/11 11:04:02;;;;;;;0.30;0.30;;;;;;;9.71;61.22;96989.25;5062758;28;20053;-72
2023/04/11 11:06:33;;;;;;;0.20;0.20;;;;;;;8.49;66.08;97001.78;5063938;28;20037;-72
2023/04/11 11:09:22;;;;;;;0.22;0.22;;;;;;;8.48;67.01;97014.25;5059832;28;20084;-71
2023/04/11 11:12:05;;;;;;;0.30;0.30;;;;;;;8.48;68.79;97005.44;5065389;28;20072;-71
2023/04/11 11:14:32;;;;;;;0.20;0.20;;;;;;;8.38;70.58;97019.94;5070557;28;20411;-72
2023/04/11 11:17:01;;;;;;;0.20;0.20;;;;;;;8.50;70.65;97028.19;5063775;28;20040;-72
2023/04/11 11:19:29;;;;;;;0.30;0.30;;;;;;;8.72;71.96;97026.25;5070782;28;20408;-71
2023/04/11 11:21:58;;;;;;;0.28;0.28;;;;;;;8.39;72.13;97029.53;5066540;28;20458;-72
2023/04/11 11:24:27;;;;;;;0.20;0.20;;;;;;;8.39;71.63;97029.53;5073506;28;20094;-72
2023/04/11 11:26:56;;;;;;;0.20;0.20;;;;;;;8.26;71.93;97029.41;5064721;28;20044;-71
2023/04/11 11:29:29;;;;;;;0.22;0.22;;;;;;;8.05;74.89;97058.69;5073263;28;20064;-72
2023/04/11 11:31:57;;;;;;;0.20;0.20;;;;;;;7.41;76.65;97055.22;5065140;28;20467;-72
2023/04/11 11:34:29;;;;;;;0.20;0.20;;;;;;;7.39;77.45;97060.72;5069964;28;20041;-72
2023/04/11 11:36:57;;;;;;;0.22;0.22;;;;;;;7.09;79.06;97064.44;5058849;28;20044;-72
2023/04/11 11:39:27;;;;;;;0.30;0.30;;;;;;;7.00;81.34;97075.16;5065214;28;20086;-72
2023/04/11 11:41:55;;;;;;;0.20;0.20;;;;;;;6.95;80.62;97074.09;5066718;28;20115;-71
2023/04/11 11:44:23;;;;;;;0.25;0.25;;;;;;;7.16;80.84;97074.16;5066868;28;20079;-71
2023/04/11 11:47:01;;;;;;;0.20;0.20;;;;;;;7.19;80.02;97071.09;5064033;28;20075;-71
2023/04/11 11:49:42;;;;;;;0.20;0.20;;;;;;;7.36;79.11;97069.06;5069946;28;20044;-71
2023/04/11 11:52:10;;;;;;;0.30;0.30;;;;;;;7.40;77.76;97075.63;5063465;28;20049;-71
2023/04/11 11:54:46;;;;;;;0.20;0.20;;;;;;;7.45;76.58;97078.56;5062052;28;20060;-72